createdAt,value
2023-05-19T00:02:09.472Z,13.82
2023-05-19T00:04:40.590Z,13.92
2023-05-19T00:07:11.468Z,14.01
2023-05-19T00:09:38.483Z,13.99
2023-05-19T00:12:05.654Z,13.91
2023-05-19T00:14:32.693Z,13.87
2023-05-19T00:17:01.988Z,13.72
2023-05-19T00:19:32.354Z,13.67
2023-05-19T00:21:59.323Z,13.74
2023-05-19T00:24:26.094Z,13.45
2023-05-19T00:26:52.809Z,13.53
2023-05-19T00:29:19.564Z,13.35
2023-05-19T00:31:46.513Z,13.19
2023-05-19T00:34:13.516Z,13.16
2023-05-19T00:36:40.471Z,13.00
2023-05-19T00:39:07.370Z,12.92
2023-05-19T00:41:36.439Z,12.94
2023-05-19T00:44:03.609Z,12.87
2023-05-19T00:46:30.798Z,12.99
2023-05-19T00:48:57.747Z,12.94
2023-05-19T00:51:27.807Z,12.95
2023-05-19T00:53:55.030Z,12.93
2023-05-19T00:56:22.909Z,13.00
2023-05-19T00:58:51.978Z,12.80
2023-05-19T01:01:21.413Z,12.84
2023-05-19T01:03:49.074Z,12.83
2023-05-19T01:06:15.941Z,12.84
2023-05-19T01:08:42.775Z,12.90
2023-05-19T01:11:10.360Z,12.90
2023-05-19T01:13:38.655Z,12.90
2023-05-19T01:16:27.797Z,12.88
2023-05-19T01:18:57.553Z,12.82
2023-05-19T01:21:55.426Z,12.83
2023-05-19T01:24:32.381Z,12.81
2023-05-19T01:27:23.508Z,12.77
2023-05-19T01:30:35.658Z,12.73
2023-05-19T01:33:06.742Z,12.61
2023-05-19T01:35:38.568Z,12.69
2023-05-19T01:38:09.520Z,12.68
2023-05-19T01:40:38.622Z,12.55
2023-05-19T01:43:07.755Z,12.53
2023-05-19T01:45:34.785Z,12.60
2023-05-19T01:48:03.959Z,12.36
2023-05-19T01:50:31.989Z,12.38
2023-05-19T01:53:00.385Z,12.24
2023-05-19T01:55:27.980Z,12.24
2023-05-19T01:58:18.693Z,12.18
2023-05-19T02:01:08.308Z,12.15
2023-05-19T02:03:53.228Z,11.99
2023-05-19T02:07:01.320Z,11.74
2023-05-19T02:09:56.999Z,11.87
2023-05-19T02:12:32.952Z,11.62
2023-05-19T02:15:04.929Z,11.47
2023-05-19T02:17:36.655Z,11.63
2023-05-19T02:20:05.099Z,11.55
2023-05-19T02:22:32.023Z,11.45
2023-05-19T02:24:59.096Z,11.28
2023-05-19T02:27:26.380Z,11.27
2023-05-19T02:29:53.453Z,11.41
2023-05-19T02:32:21.230Z,11.28
2023-05-19T02:34:48.944Z,11.36
2023-05-19T02:37:16.235Z,11.41
2023-05-19T02:39:43.183Z,11.34
2023-05-19T02:42:10.241Z,11.30
2023-05-19T02:44:36.988Z,11.28
2023-05-19T02:47:03.852Z,10.98
2023-05-19T02:49:36.146Z,10.99
2023-05-19T02:52:07.014Z,10.80
2023-05-19T02:54:34.912Z,10.98
2023-05-19T02:57:02.614Z,10.95
2023-05-19T02:59:29.541Z,11.06
2023-05-19T03:01:59.263Z,10.99
2023-05-19T03:04:26.232Z,10.72
2023-05-19T03:06:54.352Z,10.87
2023-05-19T03:09:21.391Z,10.75
2023-05-19T03:11:48.220Z,10.90
2023-05-19T03:14:15.026Z,10.64
2023-05-19T03:16:42.344Z,10.70
2023-05-19T03:19:09.738Z,10.66
2023-05-19T03:21:36.736Z,10.62
2023-05-19T03:24:03.895Z,10.68
2023-05-19T03:26:31.229Z,10.45
2023-05-19T03:28:59.457Z,10.53
2023-05-19T03:31:26.882Z,10.42
2023-05-19T03:33:54.034Z,10.44
2023-05-19T03:36:22.701Z,10.51
2023-05-19T03:38:49.859Z,10.27
2023-05-19T03:41:16.709Z,10.21
2023-05-19T03:43:43.741Z,10.29
2023-05-19T03:46:10.655Z,10.51
2023-05-19T03:48:46.189Z,10.44
2023-05-19T03:51:24.487Z,10.17
2023-05-19T03:53:54.944Z,10.39
2023-05-19T03:56:25.092Z,10.27
2023-05-19T03:58:51.934Z,10.34
2023-05-19T04:01:18.790Z,10.30
2023-05-19T04:03:45.728Z,10.35
2023-05-19T04:06:14.624Z,10.37
2023-05-19T04:08:41.496Z,10.56
2023-05-19T04:11:08.495Z,10.27
2023-05-19T04:13:35.860Z,10.41
2023-05-19T04:16:02.998Z,10.45
2023-05-19T04:18:29.805Z,10.55
2023-05-19T04:20:56.615Z,10.55
2023-05-19T04:23:23.348Z,10.67
2023-05-19T04:25:50.400Z,10.50
2023-05-19T04:28:18.119Z,10.67
2023-05-19T04:30:46.697Z,10.66
2023-05-19T04:33:13.863Z,10.52
2023-05-19T04:35:44.186Z,10.45
2023-05-19T04:38:12.346Z,10.57
2023-05-19T04:40:42.290Z,10.77
2023-05-19T04:43:09.568Z,10.66
2023-05-19T04:45:37.780Z,10.61
2023-05-19T04:48:05.908Z,10.56
2023-05-19T04:50:33.552Z,10.46
2023-05-19T04:53:00.646Z,10.62
2023-05-19T04:55:27.888Z,10.74
2023-05-19T04:57:54.714Z,10.61
2023-05-19T05:00:22.551Z,10.76
2023-05-19T05:02:59.201Z,10.78
2023-05-19T05:05:28.852Z,10.83
2023-05-19T05:07:56.306Z,10.66
2023-05-19T05:10:25.617Z,10.88
2023-05-19T05:12:53.722Z,10.76
2023-05-19T05:15:21.443Z,10.86
2023-05-19T05:17:50.669Z,10.97
2023-05-19T05:20:19.720Z,11.12
2023-05-19T05:22:46.907Z,11.24
2023-05-19T05:25:14.868Z,11.28
2023-05-19T05:27:42.274Z,11.21
2023-05-19T05:30:09.643Z,11.11
2023-05-19T05:32:37.533Z,10.97
2023-05-19T05:35:15.216Z,11.04
2023-05-19T05:37:42.052Z,11.21
2023-05-19T05:40:12.339Z,11.24
2023-05-19T05:42:39.229Z,11.19
2023-05-19T05:45:06.677Z,11.31
2023-05-19T05:47:34.076Z,11.34
2023-05-19T05:50:01.365Z,10.90
2023-05-19T05:52:30.985Z,11.31
2023-05-19T05:54:59.707Z,11.53
2023-05-19T05:57:27.065Z,11.07
2023-05-19T05:59:54.254Z,11.17
2023-05-19T06:02:21.878Z,11.32
2023-05-19T06:04:48.994Z,11.47
2023-05-19T06:07:16.034Z,11.68
2023-05-19T06:09:44.777Z,11.45
2023-05-19T06:12:12.042Z,11.68
2023-05-19T06:14:44.696Z,11.59
2023-05-19T06:17:17.271Z,11.76
2023-05-19T06:19:44.053Z,11.74
2023-05-19T06:22:10.888Z,11.57
2023-05-19T06:24:39.612Z,11.78
2023-05-19T06:27:09.009Z,11.83
2023-05-19T06:29:35.856Z,11.83
2023-05-19T06:32:05.786Z,11.70
2023-05-19T06:34:32.824Z,11.71
2023-05-19T06:36:59.565Z,11.90
2023-05-19T06:39:26.977Z,11.94
2023-05-19T06:41:54.341Z,11.91
2023-05-19T06:44:41.388Z,11.93
2023-05-19T06:47:11.921Z,11.98
2023-05-19T06:49:39.156Z,11.77
2023-05-19T06:52:06.418Z,12.04
2023-05-19T06:54:33.560Z,12.27
2023-05-19T06:57:00.454Z,12.22
2023-05-19T06:59:27.763Z,12.13
2023-05-19T07:01:54.728Z,12.32
2023-05-19T07:04:21.712Z,12.42
2023-05-19T07:06:50.286Z,12.56
2023-05-19T07:09:17.611Z,12.77
2023-05-19T07:11:45.854Z,12.76
2023-05-19T07:14:12.706Z,12.33
2023-05-19T07:16:39.564Z,12.85
2023-05-19T07:19:06.463Z,13.14
2023-05-19T07:21:33.695Z,13.27
2023-05-19T07:24:00.512Z,13.22
2023-05-19T07:26:29.606Z,13.31
2023-05-19T07:28:57.871Z,13.21
2023-05-19T07:31:24.820Z,13.23
2023-05-19T07:33:54.327Z,13.41
2023-05-19T07:36:21.869Z,13.63
2023-05-19T07:38:48.824Z,13.67
2023-05-19T07:41:15.736Z,13.87
2023-05-19T07:43:43.264Z,13.98
2023-05-19T07:46:10.045Z,13.91
2023-05-19T07:48:38.098Z,14.33
2023-05-19T07:51:04.827Z,14.96
2023-05-19T07:53:31.690Z,15.09
2023-05-19T07:55:58.823Z,15.26
2023-05-19T07:58:26.859Z,15.22
2023-05-19T08:00:53.759Z,15.75
2023-05-19T08:03:21.188Z,15.78
2023-05-19T08:05:48.293Z,16.05
2023-05-19T08:08:17.122Z,16.40
2023-05-19T08:10:43.952Z,16.32
2023-05-19T08:13:10.824Z,17.97
2023-05-19T08:15:37.850Z,19.00
2023-05-19T08:18:05.424Z,19.28
2023-05-19T08:20:32.965Z,19.27
2023-05-19T08:23:00.228Z,19.61
2023-05-19T08:25:27.138Z,19.21
2023-05-19T08:27:53.874Z,19.56
2023-05-19T08:30:21.002Z,20.40
2023-05-19T08:32:48.752Z,20.69
2023-05-19T08:35:15.932Z,21.00
2023-05-19T08:37:42.886Z,21.20
2023-05-19T08:40:15.922Z,20.94
2023-05-19T08:42:42.710Z,21.36
2023-05-19T08:45:09.858Z,20.40
2023-05-19T08:47:37.159Z,21.05
2023-05-19T08:50:10.907Z,20.88
2023-05-19T08:52:52.487Z,20.58
2023-05-19T08:56:04.667Z,20.49
2023-05-19T08:58:33.456Z,20.42
2023-05-19T09:01:01.279Z,20.16
2023-05-19T09:03:29.229Z,19.97
2023-05-19T09:05:56.378Z,19.65
2023-05-19T09:08:25.962Z,19.69
2023-05-19T09:10:52.735Z,20.07
2023-05-19T09:13:19.550Z,19.66
2023-05-19T09:15:47.124Z,19.90
2023-05-19T09:18:17.809Z,19.76
2023-05-19T09:20:46.179Z,19.79
2023-05-19T09:23:17.787Z,19.86
2023-05-19T09:25:52.343Z,19.18
2023-05-19T09:28:31.632Z,18.73
2023-05-19T09:31:09.601Z,19.13
2023-05-19T09:33:38.584Z,18.58
2023-05-19T09:36:07.203Z,18.28
2023-05-19T09:38:35.305Z,18.08
2023-05-19T09:41:02.437Z,18.02
2023-05-19T09:43:33.524Z,18.02
2023-05-19T09:46:04.226Z,17.53
2023-05-19T09:48:31.146Z,18.03
2023-05-19T09:50:58.275Z,17.58
2023-05-19T09:53:25.631Z,17.23
2023-05-19T09:55:59.136Z,17.13
2023-05-19T09:58:27.072Z,17.18
2023-05-19T10:00:55.121Z,16.87
2023-05-19T10:03:24.274Z,16.98
2023-05-19T10:05:53.312Z,16.88
2023-05-19T10:08:20.410Z,17.01
2023-05-19T10:10:47.926Z,17.33
2023-05-19T10:13:16.592Z,17.45
2023-05-19T10:15:57.481Z,17.35
2023-05-19T10:18:27.124Z,17.09
2023-05-19T10:20:54.827Z,17.12
2023-05-19T10:23:24.064Z,17.03
2023-05-19T10:25:54.891Z,17.18
2023-05-19T10:28:26.663Z,16.84
2023-05-19T10:30:57.069Z,17.60
2023-05-19T10:33:38.848Z,18.46
2023-05-19T10:36:11.618Z,18.65
2023-05-19T10:39:00.709Z,18.59
2023-05-19T10:41:51.901Z,19.06
2023-05-19T10:44:30.970Z,18.66
2023-05-19T10:46:57.782Z,18.38
2023-05-19T10:49:24.836Z,18.16
2023-05-19T10:51:57.817Z,18.27
2023-05-19T10:54:46.309Z,17.76
2023-05-19T10:57:20.218Z,17.33
2023-05-19T10:59:47.389Z,17.31
2023-05-19T11:02:47.500Z,16.90
2023-05-19T11:05:20.940Z,16.99
2023-05-19T11:08:06.156Z,16.90
2023-05-19T11:10:32.982Z,16.58
2023-05-19T11:12:59.927Z,16.71
2023-05-19T11:15:28.192Z,16.66
2023-05-19T11:17:55.363Z,16.72
2023-05-19T11:20:24.701Z,16.64
2023-05-19T11:23:08.783Z,16.72
2023-05-19T11:25:53.957Z,17.17
2023-05-19T11:28:26.683Z,17.11
2023-05-19T11:30:59.087Z,17.42
2023-05-19T11:33:30.116Z,17.72
2023-05-19T11:35:58.407Z,18.44
2023-05-19T11:38:26.383Z,17.59
2023-05-19T11:40:54.199Z,18.16
2023-05-19T11:43:25.230Z,18.65
2023-05-19T11:45:53.410Z,18.59
2023-05-19T11:48:24.830Z,18.65
2023-05-19T11:50:52.502Z,18.62
2023-05-19T11:53:22.449Z,18.40
2023-05-19T11:55:49.835Z,18.34
2023-05-19T11:58:17.549Z,18.38
2023-05-19T12:00:47.675Z,18.17
2023-05-19T12:03:15.284Z,18.09
2023-05-19T12:05:48.634Z,18.35
2023-05-19T12:08:19.067Z,18.21
2023-05-19T12:10:49.864Z,17.73
2023-05-19T12:13:17.070Z,17.67
2023-05-19T12:15:43.898Z,17.41
2023-05-19T12:18:10.757Z,17.54
2023-05-19T12:20:37.857Z,17.69
2023-05-19T12:23:05.324Z,17.54
2023-05-19T12:25:32.827Z,17.46
2023-05-19T12:28:03.689Z,17.35
2023-05-19T12:30:32.279Z,17.48
2023-05-19T12:32:59.577Z,17.06
2023-05-19T12:35:28.075Z,17.28
2023-05-19T12:37:55.186Z,17.17
2023-05-19T12:40:22.397Z,17.02
2023-05-19T12:42:52.092Z,16.79
2023-05-19T12:45:22.348Z,17.00
2023-05-19T12:47:49.898Z,16.83
2023-05-19T12:50:16.625Z,16.86
2023-05-19T12:52:46.190Z,17.03
2023-05-19T12:55:14.448Z,16.93
2023-05-19T12:57:44.248Z,17.05
2023-05-19T13:00:17.603Z,16.70
2023-05-19T13:03:08.557Z,17.16
2023-05-19T13:05:46.526Z,17.25
2023-05-19T13:08:15.364Z,17.25
2023-05-19T13:10:43.974Z,16.84
2023-05-19T13:13:11.266Z,16.86
2023-05-19T13:15:41.980Z,16.85
2023-05-19T13:18:10.177Z,16.82
2023-05-19T13:20:38.389Z,16.92
2023-05-19T13:23:06.095Z,16.87
2023-05-19T13:25:34.361Z,16.84
2023-05-19T13:28:04.939Z,16.62
2023-05-19T13:30:33.338Z,16.42
2023-05-19T13:33:00.377Z,16.43
2023-05-19T13:35:27.207Z,16.71
2023-05-19T13:37:54.329Z,16.67
2023-05-19T13:40:21.414Z,16.30
2023-05-19T13:42:48.241Z,16.41
2023-05-19T13:45:15.037Z,16.50
2023-05-19T13:47:41.955Z,16.73
2023-05-19T13:50:09.205Z,16.46
2023-05-19T13:52:38.040Z,16.30
2023-05-19T13:55:06.691Z,16.38
2023-05-19T13:57:33.447Z,16.10
2023-05-19T14:00:03.239Z,15.90
2023-05-19T14:02:40.584Z,16.05
2023-05-19T14:05:08.248Z,15.97
2023-05-19T14:07:35.696Z,16.35
2023-05-19T14:10:05.636Z,16.10
2023-05-19T14:12:41.504Z,15.82
2023-05-19T14:15:14.540Z,15.77
2023-05-19T14:17:41.613Z,15.81
2023-05-19T14:20:09.675Z,15.83
2023-05-19T14:22:36.534Z,15.84
2023-05-19T14:25:03.795Z,15.55
2023-05-19T14:27:30.680Z,15.69
2023-05-19T14:29:57.604Z,15.79
2023-05-19T14:32:24.519Z,15.82
2023-05-19T14:34:54.226Z,15.78
2023-05-19T14:37:21.100Z,15.87
2023-05-19T14:39:48.023Z,15.69
2023-05-19T14:42:14.983Z,15.63
2023-05-19T14:44:41.749Z,15.74
2023-05-19T14:47:08.696Z,15.53
2023-05-19T14:49:35.662Z,15.79
2023-05-19T14:52:02.733Z,15.88
2023-05-19T14:54:29.534Z,15.78
2023-05-19T14:56:56.331Z,15.69
2023-05-19T14:59:23.134Z,15.67
2023-05-19T15:01:49.869Z,15.76
2023-05-19T15:04:16.824Z,15.62
2023-05-19T15:06:44.352Z,15.68
2023-05-19T15:09:14.634Z,15.53
2023-05-19T15:11:41.577Z,15.74
2023-05-19T15:14:08.468Z,15.60
2023-05-19T15:16:35.218Z,15.51
2023-05-19T15:19:02.008Z,15.26
2023-05-19T15:21:28.799Z,15.25
2023-05-19T15:23:55.584Z,15.19
2023-05-19T15:26:22.547Z,15.37
2023-05-19T15:28:49.319Z,15.43
2023-05-19T15:31:16.259Z,15.36
2023-05-19T15:33:43.093Z,15.29
2023-05-19T15:36:12.855Z,15.05
2023-05-19T15:38:39.662Z,15.07
2023-05-19T15:41:08.207Z,15.13
2023-05-19T15:43:36.048Z,15.02
2023-05-19T15:46:05.095Z,15.05
2023-05-19T15:48:32.421Z,15.03
2023-05-19T15:51:00.610Z,14.90
2023-05-19T15:53:27.411Z,14.80
2023-05-19T15:55:54.331Z,14.72
2023-05-19T15:58:21.171Z,15.02
2023-05-19T16:00:47.996Z,14.92
2023-05-19T16:03:14.935Z,14.67
2023-05-19T16:05:41.697Z,14.52
2023-05-19T16:08:08.893Z,14.40
2023-05-19T16:10:36.291Z,14.33
2023-05-19T16:13:03.094Z,14.24
2023-05-19T16:15:29.901Z,14.41
2023-05-19T16:17:57.330Z,14.39
2023-05-19T16:20:27.880Z,14.29
2023-05-19T16:22:55.495Z,14.17
2023-05-19T16:25:22.614Z,14.16
2023-05-19T16:27:49.709Z,14.23
2023-05-19T16:30:16.827Z,14.23
2023-05-19T16:32:43.645Z,14.18
2023-05-19T16:35:10.647Z,14.09
2023-05-19T16:37:37.654Z,14.29
2023-05-19T16:40:05.001Z,14.32
2023-05-19T16:42:32.396Z,14.39
2023-05-19T16:44:59.092Z,14.52
2023-05-19T16:47:25.861Z,14.32
2023-05-19T16:49:52.757Z,14.40
2023-05-19T16:52:20.159Z,14.30
2023-05-19T16:54:46.999Z,14.06
2023-05-19T16:57:16.623Z,14.41
2023-05-19T16:59:43.379Z,14.43
2023-05-19T17:02:10.355Z,14.39
2023-05-19T17:04:37.497Z,14.35
2023-05-19T17:07:04.542Z,14.48
2023-05-19T17:09:31.381Z,14.45
2023-05-19T17:11:58.261Z,14.39
2023-05-19T17:14:25.024Z,14.39
2023-05-19T17:16:52.776Z,14.23
2023-05-19T17:19:19.615Z,14.16
2023-05-19T17:21:46.455Z,14.12
2023-05-19T17:24:13.186Z,14.04
2023-05-19T17:26:40.104Z,14.14
2023-05-19T17:29:06.887Z,14.14
2023-05-19T17:31:34.653Z,14.08
2023-05-19T17:34:01.368Z,13.79
2023-05-19T17:36:31.262Z,13.76
2023-05-19T17:38:58.144Z,13.71
2023-05-19T17:41:24.879Z,13.58
2023-05-19T17:43:51.688Z,13.53
2023-05-19T17:46:18.426Z,13.52
2023-05-19T17:48:45.189Z,13.64
2023-05-19T17:51:12.056Z,13.27
2023-05-19T17:53:39.105Z,13.24
2023-05-19T17:56:08.899Z,13.17
2023-05-19T17:58:36.499Z,13.21
2023-05-19T18:01:03.402Z,13.17
2023-05-19T18:03:30.895Z,12.98
2023-05-19T18:05:59.037Z,13.12
2023-05-19T18:08:26.824Z,13.15
2023-05-19T18:10:55.547Z,13.17
2023-05-19T18:13:23.689Z,13.19
2023-05-19T18:15:50.668Z,13.09
2023-05-19T18:18:17.511Z,13.01
2023-05-19T18:20:45.720Z,12.88
2023-05-19T18:23:12.537Z,12.90
2023-05-19T18:25:39.370Z,12.80
2023-05-19T18:28:06.456Z,12.83
2023-05-19T18:30:33.534Z,12.86
2023-05-19T18:33:03.559Z,12.86
2023-05-19T18:35:30.582Z,12.87
2023-05-19T18:37:57.444Z,12.79
2023-05-19T18:40:24.639Z,12.83
2023-05-19T18:42:51.378Z,12.80
2023-05-19T18:45:18.604Z,12.77
2023-05-19T18:47:45.819Z,12.81
2023-05-19T18:50:13.176Z,12.88
2023-05-19T18:52:40.475Z,12.82
2023-05-19T18:55:07.818Z,12.70
2023-05-19T18:57:34.601Z,12.76
2023-05-19T19:00:01.563Z,12.74
2023-05-19T19:02:28.459Z,12.64
2023-05-19T19:04:55.361Z,12.62
2023-05-19T19:07:25.538Z,12.60
2023-05-19T19:09:52.374Z,12.58
2023-05-19T19:12:20.298Z,12.58
2023-05-19T19:14:47.416Z,12.60
2023-05-19T19:17:14.239Z,12.52
2023-05-19T19:19:41.319Z,12.50
2023-05-19T19:22:08.216Z,12.49
2023-05-19T19:24:35.942Z,12.46
2023-05-19T19:27:02.756Z,12.40
2023-05-19T19:29:29.909Z,12.37
2023-05-19T19:31:57.032Z,12.40
2023-05-19T19:34:23.892Z,12.29
2023-05-19T19:36:50.810Z,12.24
2023-05-19T19:39:17.608Z,12.22
2023-05-19T19:41:44.385Z,12.18
2023-05-19T19:44:11.133Z,12.20
2023-05-19T19:46:38.014Z,12.16
2023-05-19T19:49:05.045Z,12.20
2023-05-19T19:51:32.074Z,12.18
2023-05-19T19:53:59.147Z,12.14
2023-05-19T19:56:27.637Z,12.04
2023-05-19T19:58:59.045Z,12.02
2023-05-19T20:01:27.899Z,12.02
2023-05-19T20:03:56.047Z,11.99
2023-05-19T20:06:23.143Z,11.90
2023-05-19T20:08:49.923Z,11.84
2023-05-19T20:11:16.956Z,11.71
2023-05-19T20:13:43.637Z,11.72
2023-05-19T20:16:10.567Z,11.70
2023-05-19T20:18:37.497Z,11.63
2023-05-19T20:21:04.343Z,11.61
2023-05-19T20:23:31.107Z,11.56
2023-05-19T20:26:10.986Z,11.51
2023-05-19T20:28:39.594Z,11.50
2023-05-19T20:31:06.504Z,11.50
2023-05-19T20:33:33.284Z,11.42
2023-05-19T20:35:59.997Z,11.39
2023-05-19T20:38:26.759Z,11.42
2023-05-19T20:40:54.402Z,11.30
2023-05-19T20:43:21.383Z,11.30
2023-05-19T20:45:48.456Z,11.27
2023-05-19T20:48:17.748Z,11.26
2023-05-19T20:50:44.489Z,11.23
2023-05-19T20:53:11.380Z,11.22
2023-05-19T20:55:39.156Z,11.14
2023-05-19T20:58:06.266Z,11.17
2023-05-19T21:00:33.526Z,11.12
2023-05-19T21:03:00.860Z,11.09
2023-05-19T21:05:27.728Z,11.05
2023-05-19T21:07:54.768Z,10.98
2023-05-19T21:10:21.663Z,11.02
2023-05-19T21:12:48.945Z,11.04
2023-05-19T21:15:15.772Z,10.99
2023-05-19T21:17:42.629Z,11.01
2023-05-19T21:20:10.039Z,11.02
2023-05-19T21:22:36.917Z,11.01
2023-05-19T21:25:04.118Z,10.94
2023-05-19T21:27:32.970Z,10.97
2023-05-19T21:30:00.300Z,10.94
2023-05-19T21:32:29.925Z,10.91
2023-05-19T21:34:56.822Z,10.90
2023-05-19T21:37:26.743Z,10.86
2023-05-19T21:39:53.574Z,10.87
2023-05-19T21:42:20.554Z,10.92
2023-05-19T21:44:47.324Z,10.89
2023-05-19T21:47:14.028Z,10.88
2023-05-19T21:49:40.822Z,10.81
2023-05-19T21:52:07.921Z,10.90
2023-05-19T21:54:35.283Z,10.83
2023-05-19T21:57:04.605Z,10.81
2023-05-19T21:59:31.457Z,10.86
2023-05-19T22:01:58.610Z,10.85
2023-05-19T22:04:25.659Z,10.79
2023-05-19T22:06:52.505Z,10.77
2023-05-19T22:09:19.334Z,10.77
2023-05-19T22:11:48.507Z,10.80
2023-05-19T22:14:17.886Z,10.80
2023-05-19T22:16:44.806Z,10.85
2023-05-19T22:19:11.793Z,10.82
2023-05-19T22:21:38.641Z,10.83
2023-05-19T22:24:05.518Z,10.85
2023-05-19T22:26:32.365Z,10.83
2023-05-19T22:29:02.540Z,10.81
2023-05-19T22:31:29.695Z,10.86
2023-05-19T22:33:56.531Z,10.89
2023-05-19T22:36:23.807Z,10.89
2023-05-19T22:38:50.657Z,10.90
2023-05-19T22:41:17.388Z,10.95
2023-05-19T22:43:44.461Z,10.96
2023-05-19T22:46:11.367Z,10.96
2023-05-19T22:48:41.270Z,10.98
2023-05-19T22:51:08.142Z,10.99
2023-05-19T22:53:34.846Z,11.02
2023-05-19T22:56:01.596Z,10.98
2023-05-19T22:58:28.409Z,10.94
2023-05-19T23:00:55.183Z,10.97
2023-05-19T23:03:27.905Z,11.03
2023-05-19T23:05:54.717Z,11.01
2023-05-19T23:08:22.123Z,11.07
2023-05-19T23:10:48.948Z,11.11
2023-05-19T23:13:15.757Z,11.06
2023-05-19T23:15:44.350Z,11.11
2023-05-19T23:18:11.616Z,11.12
2023-05-19T23:20:38.426Z,11.06
2023-05-19T23:23:05.202Z,11.09
2023-05-19T23:25:32.411Z,11.05
2023-05-19T23:27:59.302Z,11.08
2023-05-19T23:30:30.462Z,11.02
2023-05-19T23:32:57.392Z,11.05
2023-05-19T23:35:24.374Z,11.07
2023-05-19T23:37:51.166Z,11.07
2023-05-19T23:40:18.081Z,11.08
2023-05-19T23:42:45.059Z,11.18
2023-05-19T23:45:11.964Z,11.13
2023-05-19T23:47:38.897Z,11.18
2023-05-19T23:50:06.722Z,11.16
2023-05-19T23:52:33.455Z,11.22
2023-05-19T23:55:00.535Z,11.24
2023-05-19T23:57:27.417Z,11.23
2023-05-19T23:59:54.393Z,11.16
